sensor_id;sensor_type;location;lat;lon;timestamp;temperature;humidity
16283;DHT22;8249;48.708;9.030;2023-07-28T00:01:57;15.10;99.90
16283;DHT22;8249;48.708;9.030;2023-07-28T00:04:24;15.10;99.90
16283;DHT22;8249;48.708;9.030;2023-07-28T00:06:51;15.00;99.90
16283;DHT22;8249;48.708;9.030;2023-07-28T00:09:18;15.10;99.90
16283;DHT22;8249;48.708;9.030;2023-07-28T00:11:45;15.00;99.90
16283;DHT22;8249;48.708;9.030;2023-07-28T00:14:12;14.90;99.90
16283;DHT22;8249;48.708;9.030;2023-07-28T00:16:38;14.90;99.90
16283;DHT22;8249;48.708;9.030;2023-07-28T00:19:07;14.90;99.90
16283;DHT22;8249;48.708;9.030;2023-07-28T00:21:34;14.90;99.90
16283;DHT22;8249;48.708;9.030;2023-07-28T00:24:00;14.90;99.90
16283;DHT22;8249;48.708;9.030;2023-07-28T00:26:27;14.80;99.90
16283;DHT22;8249;48.708;9.030;2023-07-28T00:28:54;14.80;99.90
16283;DHT22;8249;48.708;9.030;2023-07-28T00:31:21;14.80;99.90
16283;DHT22;8249;48.708;9.030;2023-07-28T00:33:48;14.80;99.90
16283;DHT22;8249;48.708;9.030;2023-07-28T00:36:17;14.80;99.90
16283;DHT22;8249;48.708;9.030;2023-07-28T00:38:43;14.80;99.90
16283;DHT22;8249;48.708;9.030;2023-07-28T00:41:10;14.60;99.90
16283;DHT22;8249;48.708;9.030;2023-07-28T00:43:37;14.70;99.90
16283;DHT22;8249;48.708;9.030;2023-07-28T00:46:04;14.70;99.90
16283;DHT22;8249;48.708;9.030;2023-07-28T00:48:31;14.70;99.90
16283;DHT22;8249;48.708;9.030;2023-07-28T00:50:58;14.60;99.90
16283;DHT22;8249;48.708;9.030;2023-07-28T00:53:27;14.60;99.90
16283;DHT22;8249;48.708;9.030;2023-07-28T00:55:55;14.50;99.90
16283;DHT22;8249;48.708;9.030;2023-07-28T00:58:23;14.50;99.90
16283;DHT22;8249;48.708;9.030;2023-07-28T01:00:50;14.50;99.90
16283;DHT22;8249;48.708;9.030;2023-07-28T01:03:18;14.50;99.90
16283;DHT22;8249;48.708;9.030;2023-07-28T01:05:52;14.50;99.90
16283;DHT22;8249;48.708;9.030;2023-07-28T01:11:10;14.40;99.90
16283;DHT22;8249;48.708;9.030;2023-07-28T01:13:37;14.40;99.90
16283;DHT22;8249;48.708;9.030;2023-07-28T01:16:04;14.30;99.90
16283;DHT22;8249;48.708;9.030;2023-07-28T01:18:31;14.30;99.90
16283;DHT22;8249;48.708;9.030;2023-07-28T01:21:01;14.20;99.90
16283;DHT22;8249;48.708;9.030;2023-07-28T01:23:37;14.30;99.90
16283;DHT22;8249;48.708;9.030;2023-07-28T01:26:11;14.20;99.90
16283;DHT22;8249;48.708;9.030;2023-07-28T01:28:40;14.20;99.90
16283;DHT22;8249;48.708;9.030;2023-07-28T01:31:08;14.20;99.90
16283;DHT22;8249;48.708;9.030;2023-07-28T01:33:35;14.20;99.90
16283;DHT22;8249;48.708;9.030;2023-07-28T01:36:03;14.20;99.90
16283;DHT22;8249;48.708;9.030;2023-07-28T01:38:30;14.10;99.90
16283;DHT22;8249;48.708;9.030;2023-07-28T01:40:57;14.10;99.90
16283;DHT22;8249;48.708;9.030;2023-07-28T01:43:24;14.10;99.90
16283;DHT22;8249;48.708;9.030;2023-07-28T01:45:52;14.10;99.90
16283;DHT22;8249;48.708;9.030;2023-07-28T01:48:19;14.10;99.90
16283;DHT22;8249;48.708;9.030;2023-07-28T01:50:46;14.10;99.90
16283;DHT22;8249;48.708;9.030;2023-07-28T01:53:13;14.10;99.90
16283;DHT22;8249;48.708;9.030;2023-07-28T01:55:40;14.00;99.90
16283;DHT22;8249;48.708;9.030;2023-07-28T01:58:07;14.00;99.90
16283;DHT22;8249;48.708;9.030;2023-07-28T02:00:35;14.00;99.90
16283;DHT22;8249;48.708;9.030;2023-07-28T02:03:03;14.00;99.90
16283;DHT22;8249;48.708;9.030;2023-07-28T02:05:30;14.00;99.90
16283;DHT22;8249;48.708;9.030;2023-07-28T02:07:58;14.00;99.90
16283;DHT22;8249;48.708;9.030;2023-07-28T02:10:26;13.90;99.90
16283;DHT22;8249;48.708;9.030;2023-07-28T02:12:53;14.00;99.90
16283;DHT22;8249;48.708;9.030;2023-07-28T02:15:20;14.00;99.90
16283;DHT22;8249;48.708;9.030;2023-07-28T02:17:47;14.00;99.90
16283;DHT22;8249;48.708;9.030;2023-07-28T02:20:16;14.00;99.90
16283;DHT22;8249;48.708;9.030;2023-07-28T02:22:43;14.00;99.90
16283;DHT22;8249;48.708;9.030;2023-07-28T02:25:10;14.00;99.90
16283;DHT22;8249;48.708;9.030;2023-07-28T02:27:38;14.00;99.90
16283;DHT22;8249;48.708;9.030;2023-07-28T02:30:05;14.00;99.90
16283;DHT22;8249;48.708;9.030;2023-07-28T02:32:33;14.00;99.90
16283;DHT22;8249;48.708;9.030;2023-07-28T02:35:00;14.00;99.90
16283;DHT22;8249;48.708;9.030;2023-07-28T02:37:28;14.00;99.90
16283;DHT22;8249;48.708;9.030;2023-07-28T02:39:55;13.90;99.90
16283;DHT22;8249;48.708;9.030;2023-07-28T02:42:22;13.90;99.90
16283;DHT22;8249;48.708;9.030;2023-07-28T02:44:50;13.90;99.90
16283;DHT22;8249;48.708;9.030;2023-07-28T02:47:17;13.90;99.90
16283;DHT22;8249;48.708;9.030;2023-07-28T02:49:45;13.90;99.90
16283;DHT22;8249;48.708;9.030;2023-07-28T02:52:12;13.90;99.90
16283;DHT22;8249;48.708;9.030;2023-07-28T02:54:40;13.90;99.90
16283;DHT22;8249;48.708;9.030;2023-07-28T02:57:07;13.90;99.90
16283;DHT22;8249;48.708;9.030;2023-07-28T02:59:35;13.90;99.90
16283;DHT22;8249;48.708;9.030;2023-07-28T03:02:01;14.00;99.90
16283;DHT22;8249;48.708;9.030;2023-07-28T03:04:30;14.00;99.90
16283;DHT22;8249;48.708;9.030;2023-07-28T03:07:19;14.00;99.90
16283;DHT22;8249;48.708;9.030;2023-07-28T03:09:54;14.00;99.90
16283;DHT22;8249;48.708;9.030;2023-07-28T03:12:21;14.10;99.90
16283;DHT22;8249;48.708;9.030;2023-07-28T03:14:48;14.10;99.90
16283;DHT22;8249;48.708;9.030;2023-07-28T03:17:15;14.10;99.90
16283;DHT22;8249;48.708;9.030;2023-07-28T03:19:43;14.20;99.90
16283;DHT22;8249;48.708;9.030;2023-07-28T03:22:09;14.20;99.90
16283;DHT22;8249;48.708;9.030;2023-07-28T03:24:36;14.30;99.90
16283;DHT22;8249;48.708;9.030;2023-07-28T03:27:05;14.30;99.90
16283;DHT22;8249;48.708;9.030;2023-07-28T03:29:34;14.30;99.90
16283;DHT22;8249;48.708;9.030;2023-07-28T03:32:01;14.30;99.90
16283;DHT22;8249;48.708;9.030;2023-07-28T03:34:28;14.40;99.90
16283;DHT22;8249;48.708;9.030;2023-07-28T03:36:57;14.40;99.90
16283;DHT22;8249;48.708;9.030;2023-07-28T03:39:24;14.50;99.90
16283;DHT22;8249;48.708;9.030;2023-07-28T03:41:51;14.50;99.90
16283;DHT22;8249;48.708;9.030;2023-07-28T03:44:20;14.50;99.90
16283;DHT22;8249;48.708;9.030;2023-07-28T03:46:47;14.60;99.90
16283;DHT22;8249;48.708;9.030;2023-07-28T03:49:14;14.60;99.90
16283;DHT22;8249;48.708;9.030;2023-07-28T03:51:41;14.60;99.90
16283;DHT22;8249;48.708;9.030;2023-07-28T03:54:08;14.70;99.90
16283;DHT22;8249;48.708;9.030;2023-07-28T03:56:34;14.70;99.90
16283;DHT22;8249;48.708;9.030;2023-07-28T03:59:01;14.80;99.90
16283;DHT22;8249;48.708;9.030;2023-07-28T04:01:30;14.80;99.90
16283;DHT22;8249;48.708;9.030;2023-07-28T04:03:57;14.80;99.90
16283;DHT22;8249;48.708;9.030;2023-07-28T04:06:39;14.90;99.90
16283;DHT22;8249;48.708;9.030;2023-07-28T04:09:06;14.90;99.90
16283;DHT22;8249;48.708;9.030;2023-07-28T04:11:33;15.00;99.90
16283;DHT22;8249;48.708;9.030;2023-07-28T04:14:02;15.00;99.90
16283;DHT22;8249;48.708;9.030;2023-07-28T04:20:11;15.20;99.90
16283;DHT22;8249;48.708;9.030;2023-07-28T04:22:38;15.20;99.90
16283;DHT22;8249;48.708;9.030;2023-07-28T04:25:06;15.30;99.90
16283;DHT22;8249;48.708;9.030;2023-07-28T04:27:34;15.30;99.90
16283;DHT22;8249;48.708;9.030;2023-07-28T04:30:04;15.30;99.90
16283;DHT22;8249;48.708;9.030;2023-07-28T04:32:31;15.40;99.90
16283;DHT22;8249;48.708;9.030;2023-07-28T04:35:04;15.40;99.90
16283;DHT22;8249;48.708;9.030;2023-07-28T04:37:51;15.40;99.90
16283;DHT22;8249;48.708;9.030;2023-07-28T04:40:37;15.50;99.90
16283;DHT22;8249;48.708;9.030;2023-07-28T04:43:04;15.50;99.90
16283;DHT22;8249;48.708;9.030;2023-07-28T04:45:31;15.50;99.90
16283;DHT22;8249;48.708;9.030;2023-07-28T04:48:01;15.50;99.90
16283;DHT22;8249;48.708;9.030;2023-07-28T04:50:29;15.60;99.90
16283;DHT22;8249;48.708;9.030;2023-07-28T04:53:29;15.60;99.90
16283;DHT22;8249;48.708;9.030;2023-07-28T04:56:16;15.60;99.90
16283;DHT22;8249;48.708;9.030;2023-07-28T04:58:43;15.60;99.90
16283;DHT22;8249;48.708;9.030;2023-07-28T05:01:10;15.60;99.90
16283;DHT22;8249;48.708;9.030;2023-07-28T05:03:39;15.60;99.90
16283;DHT22;8249;48.708;9.030;2023-07-28T05:06:18;15.70;99.90
16283;DHT22;8249;48.708;9.030;2023-07-28T05:08:46;15.70;99.90
16283;DHT22;8249;48.708;9.030;2023-07-28T05:11:19;15.70;99.90
16283;DHT22;8249;48.708;9.030;2023-07-28T05:13:46;15.70;99.90
16283;DHT22;8249;48.708;9.030;2023-07-28T05:16:13;15.70;99.90
16283;DHT22;8249;48.708;9.030;2023-07-28T05:18:58;15.70;99.90
16283;DHT22;8249;48.708;9.030;2023-07-28T05:21:45;15.80;99.90
16283;DHT22;8249;48.708;9.030;2023-07-28T05:24:15;15.80;99.90
16283;DHT22;8249;48.708;9.030;2023-07-28T05:26:43;15.80;99.90
16283;DHT22;8249;48.708;9.030;2023-07-28T05:29:11;15.80;99.90
16283;DHT22;8249;48.708;9.030;2023-07-28T05:31:38;15.90;99.90
16283;DHT22;8249;48.708;9.030;2023-07-28T05:34:13;15.90;99.90
16283;DHT22;8249;48.708;9.030;2023-07-28T05:36:40;16.00;99.90
16283;DHT22;8249;48.708;9.030;2023-07-28T05:39:07;16.00;99.90
16283;DHT22;8249;48.708;9.030;2023-07-28T05:41:40;16.00;99.90
16283;DHT22;8249;48.708;9.030;2023-07-28T05:44:09;16.10;99.90
16283;DHT22;8249;48.708;9.030;2023-07-28T05:46:37;16.20;99.90
16283;DHT22;8249;48.708;9.030;2023-07-28T05:49:04;16.20;99.90
16283;DHT22;8249;48.708;9.030;2023-07-28T05:51:31;16.20;99.90
16283;DHT22;8249;48.708;9.030;2023-07-28T05:53:59;16.20;99.90
16283;DHT22;8249;48.708;9.030;2023-07-28T05:56:25;16.30;99.90
16283;DHT22;8249;48.708;9.030;2023-07-28T05:58:54;16.30;99.90
16283;DHT22;8249;48.708;9.030;2023-07-28T06:01:21;16.30;99.90
16283;DHT22;8249;48.708;9.030;2023-07-28T06:04:10;16.40;99.90
16283;DHT22;8249;48.708;9.030;2023-07-28T06:06:43;16.40;99.90
16283;DHT22;8249;48.708;9.030;2023-07-28T06:09:12;16.50;99.90
16283;DHT22;8249;48.708;9.030;2023-07-28T06:11:40;16.60;99.90
16283;DHT22;8249;48.708;9.030;2023-07-28T06:14:08;16.60;99.90
16283;DHT22;8249;48.708;9.030;2023-07-28T06:16:36;16.60;99.90
16283;DHT22;8249;48.708;9.030;2023-07-28T06:19:03;16.60;99.90
16283;DHT22;8249;48.708;9.030;2023-07-28T06:21:31;16.60;99.90
16283;DHT22;8249;48.708;9.030;2023-07-28T06:23:58;16.70;99.90
16283;DHT22;8249;48.708;9.030;2023-07-28T06:26:25;16.80;99.90
16283;DHT22;8249;48.708;9.030;2023-07-28T06:28:52;16.80;99.90
16283;DHT22;8249;48.708;9.030;2023-07-28T06:31:21;16.90;99.90
16283;DHT22;8249;48.708;9.030;2023-07-28T06:33:48;17.00;99.90
16283;DHT22;8249;48.708;9.030;2023-07-28T06:36:15;17.00;99.90
16283;DHT22;8249;48.708;9.030;2023-07-28T06:38:43;17.00;99.90
16283;DHT22;8249;48.708;9.030;2023-07-28T06:41:13;17.00;99.90
16283;DHT22;8249;48.708;9.030;2023-07-28T06:43:41;17.00;99.90
16283;DHT22;8249;48.708;9.030;2023-07-28T06:46:09;17.00;99.90
16283;DHT22;8249;48.708;9.030;2023-07-28T06:48:37;17.10;99.90
16283;DHT22;8249;48.708;9.030;2023-07-28T06:51:04;17.10;99.90
16283;DHT22;8249;48.708;9.030;2023-07-28T06:53:31;17.20;99.90
16283;DHT22;8249;48.708;9.030;2023-07-28T06:56:00;17.30;99.90
16283;DHT22;8249;48.708;9.030;2023-07-28T06:58:27;17.40;99.90
16283;DHT22;8249;48.708;9.030;2023-07-28T07:00:54;17.50;99.90
16283;DHT22;8249;48.708;9.030;2023-07-28T07:03:23;17.60;99.90
16283;DHT22;8249;48.708;9.030;2023-07-28T07:05:51;17.80;99.90
16283;DHT22;8249;48.708;9.030;2023-07-28T07:08:18;17.90;99.90
16283;DHT22;8249;48.708;9.030;2023-07-28T07:10:47;17.90;99.90
16283;DHT22;8249;48.708;9.030;2023-07-28T07:13:16;18.00;99.90
16283;DHT22;8249;48.708;9.030;2023-07-28T07:15:43;18.10;99.90
16283;DHT22;8249;48.708;9.030;2023-07-28T07:18:11;18.10;99.90
16283;DHT22;8249;48.708;9.030;2023-07-28T07:20:38;18.20;99.90
16283;DHT22;8249;48.708;9.030;2023-07-28T07:23:06;18.20;99.90
16283;DHT22;8249;48.708;9.030;2023-07-28T07:25:33;18.20;99.90
16283;DHT22;8249;48.708;9.030;2023-07-28T07:28:03;18.30;99.90
16283;DHT22;8249;48.708;9.030;2023-07-28T07:30:32;18.40;99.90
16283;DHT22;8249;48.708;9.030;2023-07-28T07:32:59;18.50;99.90
16283;DHT22;8249;48.708;9.030;2023-07-28T07:35:26;18.60;99.90
16283;DHT22;8249;48.708;9.030;2023-07-28T07:37:53;18.70;99.90
16283;DHT22;8249;48.708;9.030;2023-07-28T07:40:21;18.80;99.90
16283;DHT22;8249;48.708;9.030;2023-07-28T07:42:49;18.90;99.90
16283;DHT22;8249;48.708;9.030;2023-07-28T07:45:16;18.90;99.90
16283;DHT22;8249;48.708;9.030;2023-07-28T07:47:43;18.90;99.90
16283;DHT22;8249;48.708;9.030;2023-07-28T07:50:12;18.90;99.90
16283;DHT22;8249;48.708;9.030;2023-07-28T07:52:39;19.00;99.90
16283;DHT22;8249;48.708;9.030;2023-07-28T07:55:08;19.00;99.90
16283;DHT22;8249;48.708;9.030;2023-07-28T07:57:36;19.00;99.90
16283;DHT22;8249;48.708;9.030;2023-07-28T08:00:04;18.90;99.90
16283;DHT22;8249;48.708;9.030;2023-07-28T08:02:38;19.00;99.90
16283;DHT22;8249;48.708;9.030;2023-07-28T08:05:06;19.10;99.90
16283;DHT22;8249;48.708;9.030;2023-07-28T08:07:33;19.20;99.90
16283;DHT22;8249;48.708;9.030;2023-07-28T08:10:00;19.30;99.90
16283;DHT22;8249;48.708;9.030;2023-07-28T08:12:27;19.50;99.90
16283;DHT22;8249;48.708;9.030;2023-07-28T08:14:55;19.70;99.90
16283;DHT22;8249;48.708;9.030;2023-07-28T08:17:22;20.00;99.90
16283;DHT22;8249;48.708;9.030;2023-07-28T08:19:49;20.20;99.90
16283;DHT22;8249;48.708;9.030;2023-07-28T08:22:16;20.40;99.90
16283;DHT22;8249;48.708;9.030;2023-07-28T08:24:43;20.60;99.90
16283;DHT22;8249;48.708;9.030;2023-07-28T08:27:10;20.80;99.90
16283;DHT22;8249;48.708;9.030;2023-07-28T08:29:37;20.90;99.90
16283;DHT22;8249;48.708;9.030;2023-07-28T08:32:06;20.90;99.90
16283;DHT22;8249;48.708;9.030;2023-07-28T08:34:33;20.90;99.90
16283;DHT22;8249;48.708;9.030;2023-07-28T08:37:00;20.80;99.90
16283;DHT22;8249;48.708;9.030;2023-07-28T08:39:27;20.80;99.90
16283;DHT22;8249;48.708;9.030;2023-07-28T08:41:58;20.80;99.90
16283;DHT22;8249;48.708;9.030;2023-07-28T08:44:26;21.10;99.90
16283;DHT22;8249;48.708;9.030;2023-07-28T08:46:53;21.30;99.90
16283;DHT22;8249;48.708;9.030;2023-07-28T08:49:21;21.50;99.90
16283;DHT22;8249;48.708;9.030;2023-07-28T08:51:51;21.90;99.90
16283;DHT22;8249;48.708;9.030;2023-07-28T08:54:18;22.00;99.90
16283;DHT22;8249;48.708;9.030;2023-07-28T08:56:46;22.10;99.90
16283;DHT22;8249;48.708;9.030;2023-07-28T08:59:20;22.40;99.90
16283;DHT22;8249;48.708;9.030;2023-07-28T09:01:49;22.40;99.90
16283;DHT22;8249;48.708;9.030;2023-07-28T09:04:16;22.00;99.90
16283;DHT22;8249;48.708;9.030;2023-07-28T09:06:46;21.90;99.90
16283;DHT22;8249;48.708;9.030;2023-07-28T09:09:14;21.90;99.90
16283;DHT22;8249;48.708;9.030;2023-07-28T09:11:44;21.80;99.90
16283;DHT22;8249;48.708;9.030;2023-07-28T09:14:13;21.70;99.90
16283;DHT22;8249;48.708;9.030;2023-07-28T09:16:40;21.60;99.90
16283;DHT22;8249;48.708;9.030;2023-07-28T09:19:08;21.60;99.90
16283;DHT22;8249;48.708;9.030;2023-07-28T09:21:35;21.40;99.90
16283;DHT22;8249;48.708;9.030;2023-07-28T09:24:05;21.40;99.90
16283;DHT22;8249;48.708;9.030;2023-07-28T09:26:39;21.40;99.90
16283;DHT22;8249;48.708;9.030;2023-07-28T09:29:13;21.50;99.90
16283;DHT22;8249;48.708;9.030;2023-07-28T09:31:40;21.40;99.90
16283;DHT22;8249;48.708;9.030;2023-07-28T09:34:08;21.40;99.90
16283;DHT22;8249;48.708;9.030;2023-07-28T09:36:35;21.20;99.90
16283;DHT22;8249;48.708;9.030;2023-07-28T09:39:05;21.30;99.90
16283;DHT22;8249;48.708;9.030;2023-07-28T09:41:35;21.40;99.90
16283;DHT22;8249;48.708;9.030;2023-07-28T09:44:03;21.50;99.90
16283;DHT22;8249;48.708;9.030;2023-07-28T09:46:33;21.50;99.90
16283;DHT22;8249;48.708;9.030;2023-07-28T09:49:04;21.60;99.90
16283;DHT22;8249;48.708;9.030;2023-07-28T09:51:31;21.70;99.90
16283;DHT22;8249;48.708;9.030;2023-07-28T09:54:07;21.60;99.90
16283;DHT22;8249;48.708;9.030;2023-07-28T09:56:37;21.50;99.90
16283;DHT22;8249;48.708;9.030;2023-07-28T09:59:11;21.40;99.90
16283;DHT22;8249;48.708;9.030;2023-07-28T10:01:39;21.40;99.90
16283;DHT22;8249;48.708;9.030;2023-07-28T10:04:07;21.40;99.90
16283;DHT22;8249;48.708;9.030;2023-07-28T10:06:34;21.40;99.90
16283;DHT22;8249;48.708;9.030;2023-07-28T10:09:03;21.40;99.90
16283;DHT22;8249;48.708;9.030;2023-07-28T10:11:32;21.40;99.90
16283;DHT22;8249;48.708;9.030;2023-07-28T10:13:59;21.40;99.90
16283;DHT22;8249;48.708;9.030;2023-07-28T10:16:30;21.50;99.90
16283;DHT22;8249;48.708;9.030;2023-07-28T10:18:59;21.50;99.90
16283;DHT22;8249;48.708;9.030;2023-07-28T10:21:28;21.50;99.90
16283;DHT22;8249;48.708;9.030;2023-07-28T10:23:55;21.50;99.90
16283;DHT22;8249;48.708;9.030;2023-07-28T10:26:36;21.50;99.90
16283;DHT22;8249;48.708;9.030;2023-07-28T10:29:11;21.60;99.90
16283;DHT22;8249;48.708;9.030;2023-07-28T10:31:49;21.70;99.90
16283;DHT22;8249;48.708;9.030;2023-07-28T10:34:17;21.90;99.90
16283;DHT22;8249;48.708;9.030;2023-07-28T10:36:44;22.10;99.90
16283;DHT22;8249;48.708;9.030;2023-07-28T10:39:16;22.10;99.90
16283;DHT22;8249;48.708;9.030;2023-07-28T10:42:04;22.40;99.90
16283;DHT22;8249;48.708;9.030;2023-07-28T10:44:32;22.60;99.90
16283;DHT22;8249;48.708;9.030;2023-07-28T10:47:00;22.80;99.90
16283;DHT22;8249;48.708;9.030;2023-07-28T10:49:28;23.10;99.90
16283;DHT22;8249;48.708;9.030;2023-07-28T10:51:55;23.10;99.90
16283;DHT22;8249;48.708;9.030;2023-07-28T10:54:22;23.10;99.90
16283;DHT22;8249;48.708;9.030;2023-07-28T10:56:49;23.20;99.90
16283;DHT22;8249;48.708;9.030;2023-07-28T10:59:17;23.20;99.90
16283;DHT22;8249;48.708;9.030;2023-07-28T11:01:44;23.30;99.90
16283;DHT22;8249;48.708;9.030;2023-07-28T11:04:13;23.30;99.90
16283;DHT22;8249;48.708;9.030;2023-07-28T11:06:42;23.30;99.90
16283;DHT22;8249;48.708;9.030;2023-07-28T11:09:09;23.30;99.90
16283;DHT22;8249;48.708;9.030;2023-07-28T11:11:37;23.40;99.90
16283;DHT22;8249;48.708;9.030;2023-07-28T11:14:05;23.60;99.90
16283;DHT22;8249;48.708;9.030;2023-07-28T11:16:35;23.60;99.90
16283;DHT22;8249;48.708;9.030;2023-07-28T11:19:03;23.50;99.90
16283;DHT22;8249;48.708;9.030;2023-07-28T11:21:36;23.50;99.90
16283;DHT22;8249;48.708;9.030;2023-07-28T11:24:03;23.40;99.90
16283;DHT22;8249;48.708;9.030;2023-07-28T11:26:30;23.40;99.90
16283;DHT22;8249;48.708;9.030;2023-07-28T11:28:59;23.50;99.90
16283;DHT22;8249;48.708;9.030;2023-07-28T11:31:26;23.40;99.90
16283;DHT22;8249;48.708;9.030;2023-07-28T11:33:54;23.40;99.90
16283;DHT22;8249;48.708;9.030;2023-07-28T11:36:22;23.20;99.90
16283;DHT22;8249;48.708;9.030;2023-07-28T11:38:51;22.90;99.90
16283;DHT22;8249;48.708;9.030;2023-07-28T11:41:18;22.70;99.90
16283;DHT22;8249;48.708;9.030;2023-07-28T11:43:46;22.50;99.90
16283;DHT22;8249;48.708;9.030;2023-07-28T11:46:33;22.10;99.90
16283;DHT22;8249;48.708;9.030;2023-07-28T11:49:10;21.80;99.90
16283;DHT22;8249;48.708;9.030;2023-07-28T11:51:39;21.60;99.90
16283;DHT22;8249;48.708;9.030;2023-07-28T11:54:11;21.30;99.90
16283;DHT22;8249;48.708;9.030;2023-07-28T11:56:40;21.10;99.90
16283;DHT22;8249;48.708;9.030;2023-07-28T11:59:06;21.10;99.90
16283;DHT22;8249;48.708;9.030;2023-07-28T12:01:34;21.00;99.90
16283;DHT22;8249;48.708;9.030;2023-07-28T12:04:20;21.00;99.90
16283;DHT22;8249;48.708;9.030;2023-07-28T12:07:07;21.10;99.90
16283;DHT22;8249;48.708;9.030;2023-07-28T12:09:50;21.10;99.90
16283;DHT22;8249;48.708;9.030;2023-07-28T12:12:19;21.20;99.90
16283;DHT22;8249;48.708;9.030;2023-07-28T12:14:46;21.40;99.90
16283;DHT22;8249;48.708;9.030;2023-07-28T12:17:17;21.60;99.90
16283;DHT22;8249;48.708;9.030;2023-07-28T12:19:57;21.80;99.90
16283;DHT22;8249;48.708;9.030;2023-07-28T12:22:25;22.10;99.90
16283;DHT22;8249;48.708;9.030;2023-07-28T12:24:52;22.20;99.90
16283;DHT22;8249;48.708;9.030;2023-07-28T12:27:19;22.30;99.90
16283;DHT22;8249;48.708;9.030;2023-07-28T12:29:49;22.50;99.90
16283;DHT22;8249;48.708;9.030;2023-07-28T12:32:16;22.60;99.90
16283;DHT22;8249;48.708;9.030;2023-07-28T12:34:43;22.90;99.90
16283;DHT22;8249;48.708;9.030;2023-07-28T12:37:11;23.30;99.90
16283;DHT22;8249;48.708;9.030;2023-07-28T12:39:38;23.50;99.90
16283;DHT22;8249;48.708;9.030;2023-07-28T12:42:06;23.60;99.90
16283;DHT22;8249;48.708;9.030;2023-07-28T12:44:33;23.60;99.90
16283;DHT22;8249;48.708;9.030;2023-07-28T12:47:00;23.50;99.90
16283;DHT22;8249;48.708;9.030;2023-07-28T12:49:27;23.20;99.90
16283;DHT22;8249;48.708;9.030;2023-07-28T12:51:55;23.00;99.90
16283;DHT22;8249;48.708;9.030;2023-07-28T12:54:24;22.80;99.90
16283;DHT22;8249;48.708;9.030;2023-07-28T12:56:51;22.60;99.90
16283;DHT22;8249;48.708;9.030;2023-07-28T12:59:18;22.40;99.90
16283;DHT22;8249;48.708;9.030;2023-07-28T13:01:45;22.30;99.90
16283;DHT22;8249;48.708;9.030;2023-07-28T13:04:12;22.30;99.90
16283;DHT22;8249;48.708;9.030;2023-07-28T13:06:39;22.20;99.90
16283;DHT22;8249;48.708;9.030;2023-07-28T13:09:07;22.20;99.90
16283;DHT22;8249;48.708;9.030;2023-07-28T13:15:22;22.10;99.90
16283;DHT22;8249;48.708;9.030;2023-07-28T13:17:49;22.10;99.90
16283;DHT22;8249;48.708;9.030;2023-07-28T13:20:16;21.90;99.90
16283;DHT22;8249;48.708;9.030;2023-07-28T13:22:43;21.80;99.90
16283;DHT22;8249;48.708;9.030;2023-07-28T13:25:10;21.70;99.90
16283;DHT22;8249;48.708;9.030;2023-07-28T13:27:37;21.50;99.90
16283;DHT22;8249;48.708;9.030;2023-07-28T13:30:04;21.30;99.90
16283;DHT22;8249;48.708;9.030;2023-07-28T13:32:33;21.20;99.90
16283;DHT22;8249;48.708;9.030;2023-07-28T13:34:59;21.00;99.90
16283;DHT22;8249;48.708;9.030;2023-07-28T13:37:26;20.70;99.90
16283;DHT22;8249;48.708;9.030;2023-07-28T13:39:53;20.50;99.90
16283;DHT22;8249;48.708;9.030;2023-07-28T13:42:20;20.40;99.90
16283;DHT22;8249;48.708;9.030;2023-07-28T13:44:47;20.20;99.90
16283;DHT22;8249;48.708;9.030;2023-07-28T13:47:14;20.10;99.90
16283;DHT22;8249;48.708;9.030;2023-07-28T13:49:42;19.90;99.90
16283;DHT22;8249;48.708;9.030;2023-07-28T13:52:09;19.80;99.90
16283;DHT22;8249;48.708;9.030;2023-07-28T13:54:36;19.70;99.90
16283;DHT22;8249;48.708;9.030;2023-07-28T13:57:03;19.60;99.90
16283;DHT22;8249;48.708;9.030;2023-07-28T13:59:30;19.50;99.90
16283;DHT22;8249;48.708;9.030;2023-07-28T14:01:57;19.40;99.90
16283;DHT22;8249;48.708;9.030;2023-07-28T14:04:24;19.40;99.90
16283;DHT22;8249;48.708;9.030;2023-07-28T14:06:52;19.40;99.90
16283;DHT22;8249;48.708;9.030;2023-07-28T14:09:23;19.40;99.90
16283;DHT22;8249;48.708;9.030;2023-07-28T14:11:50;19.40;99.90
16283;DHT22;8249;48.708;9.030;2023-07-28T14:14:16;19.40;99.90
16283;DHT22;8249;48.708;9.030;2023-07-28T14:16:44;19.40;99.90
16283;DHT22;8249;48.708;9.030;2023-07-28T14:19:10;19.50;99.90
16283;DHT22;8249;48.708;9.030;2023-07-28T14:21:38;19.50;99.90
16283;DHT22;8249;48.708;9.030;2023-07-28T14:24:06;19.50;99.90
16283;DHT22;8249;48.708;9.030;2023-07-28T14:26:33;19.40;99.90
16283;DHT22;8249;48.708;9.030;2023-07-28T14:29:00;19.30;99.90
16283;DHT22;8249;48.708;9.030;2023-07-28T14:31:27;19.40;99.90
16283;DHT22;8249;48.708;9.030;2023-07-28T14:33:54;19.50;99.90
16283;DHT22;8249;48.708;9.030;2023-07-28T14:36:21;19.50;99.90
16283;DHT22;8249;48.708;9.030;2023-07-28T14:38:47;19.70;99.90
16283;DHT22;8249;48.708;9.030;2023-07-28T14:41:16;19.80;99.90
16283;DHT22;8249;48.708;9.030;2023-07-28T14:43:45;19.90;99.90
16283;DHT22;8249;48.708;9.030;2023-07-28T14:46:37;20.10;99.90
16283;DHT22;8249;48.708;9.030;2023-07-28T14:49:09;20.20;99.90
16283;DHT22;8249;48.708;9.030;2023-07-28T14:51:45;20.30;99.90
16283;DHT22;8249;48.708;9.030;2023-07-28T14:54:25;20.40;99.90
16283;DHT22;8249;48.708;9.030;2023-07-28T14:56:54;20.50;99.90
16283;DHT22;8249;48.708;9.030;2023-07-28T14:59:21;20.70;99.90
16283;DHT22;8249;48.708;9.030;2023-07-28T15:01:47;20.80;99.90
16283;DHT22;8249;48.708;9.030;2023-07-28T15:04:14;20.90;99.90
16283;DHT22;8249;48.708;9.030;2023-07-28T15:06:42;21.10;99.90
16283;DHT22;8249;48.708;9.030;2023-07-28T15:09:08;21.30;99.90
16283;DHT22;8249;48.708;9.030;2023-07-28T15:11:35;21.40;99.90
16283;DHT22;8249;48.708;9.030;2023-07-28T15:14:04;21.60;99.90
16283;DHT22;8249;48.708;9.030;2023-07-28T15:16:32;21.60;99.90
16283;DHT22;8249;48.708;9.030;2023-07-28T15:18:59;21.30;99.90
16283;DHT22;8249;48.708;9.030;2023-07-28T15:21:26;21.20;99.90
16283;DHT22;8249;48.708;9.030;2023-07-28T15:23:55;21.10;99.90
16283;DHT22;8249;48.708;9.030;2023-07-28T15:26:22;21.00;99.90
16283;DHT22;8249;48.708;9.030;2023-07-28T15:28:48;20.80;99.90
16283;DHT22;8249;48.708;9.030;2023-07-28T15:31:17;20.60;99.90
16283;DHT22;8249;48.708;9.030;2023-07-28T15:33:44;20.50;99.90
16283;DHT22;8249;48.708;9.030;2023-07-28T15:36:11;20.40;99.90
16283;DHT22;8249;48.708;9.030;2023-07-28T15:38:37;20.30;99.90
16283;DHT22;8249;48.708;9.030;2023-07-28T15:41:04;20.30;99.90
16283;DHT22;8249;48.708;9.030;2023-07-28T15:43:31;20.40;99.90
16283;DHT22;8249;48.708;9.030;2023-07-28T15:45:58;20.30;99.90
16283;DHT22;8249;48.708;9.030;2023-07-28T15:48:27;20.30;99.90
16283;DHT22;8249;48.708;9.030;2023-07-28T15:50:54;20.20;99.90
16283;DHT22;8249;48.708;9.030;2023-07-28T15:53:21;20.20;99.90
16283;DHT22;8249;48.708;9.030;2023-07-28T15:55:48;20.20;99.90
16283;DHT22;8249;48.708;9.030;2023-07-28T15:58:15;20.20;99.90
16283;DHT22;8249;48.708;9.030;2023-07-28T16:00:42;20.20;99.90
16283;DHT22;8249;48.708;9.030;2023-07-28T16:03:09;20.20;99.90
16283;DHT22;8249;48.708;9.030;2023-07-28T16:05:38;20.20;99.90